sensor_id;sensor_type;location;lat;lon;timestamp;P1;P2;P0
35654;PMS1003;21773;50.010;19.972;2023-07-28T00:01:39;9.00;7.00;6.00
35654;PMS1003;21773;50.010;19.972;2023-07-28T00:04:43;6.75;6.75;6.00
35654;PMS1003;21773;50.010;19.972;2023-07-28T00:07:47;7.00;7.00;7.00
35654;PMS1003;21773;50.010;19.972;2023-07-28T00:10:50;8.00;7.00;6.00
35654;PMS1003;21773;50.010;19.972;2023-07-28T00:13:53;8.00;7.00;6.00
35654;PMS1003;21773;50.010;19.972;2023-07-28T00:16:57;6.75;6.00;6.00
35654;PMS1003;21773;50.010;19.972;2023-07-28T00:20:01;7.00;7.00;6.80
35654;PMS1003;21773;50.010;19.972;2023-07-28T00:23:05;6.60;6.20;6.00
35654;PMS1003;21773;50.010;19.972;2023-07-28T00:26:09;6.25;6.00;5.75
35654;PMS1003;21773;50.010;19.972;2023-07-28T00:29:12;7.00;7.00;6.20
35654;PMS1003;21773;50.010;19.972;2023-07-28T00:32:15;7.20;6.20;5.60
35654;PMS1003;21773;50.010;19.972;2023-07-28T00:35:20;7.00;6.00;6.00
35654;PMS1003;21773;50.010;19.972;2023-07-28T00:38:23;5.00;4.60;4.00
35654;PMS1003;21773;50.010;19.972;2023-07-28T00:41:30;6.40;6.40;6.00
35654;PMS1003;21773;50.010;19.972;2023-07-28T00:44:33;6.40;6.00;5.40
35654;PMS1003;21773;50.010;19.972;2023-07-28T00:47:36;5.00;4.60;4.00
35654;PMS1003;21773;50.010;19.972;2023-07-28T00:50:42;5.00;5.00;5.00
35654;PMS1003;21773;50.010;19.972;2023-07-28T00:53:48;5.40;5.00;4.40
35654;PMS1003;21773;50.010;19.972;2023-07-28T00:56:54;5.25;4.75;4.25
35654;PMS1003;21773;50.010;19.972;2023-07-28T00:59:58;7.00;6.60;6.00
35654;PMS1003;21773;50.010;19.972;2023-07-28T01:03:04;3.00;3.00;3.00
35654;PMS1003;21773;50.010;19.972;2023-07-28T01:06:13;4.00;3.00;2.50
35654;PMS1003;21773;50.010;19.972;2023-07-28T01:09:21;4.60;3.60;3.60
35654;PMS1003;21773;50.010;19.972;2023-07-28T01:12:31;4.40;4.40;4.40
35654;PMS1003;21773;50.010;19.972;2023-07-28T01:15:35;3.25;3.25;3.25
35654;PMS1003;21773;50.010;19.972;2023-07-28T01:18:38;6.00;5.00;5.00
35654;PMS1003;21773;50.010;19.972;2023-07-28T01:21:43;5.00;5.00;4.00
35654;PMS1003;21773;50.010;19.972;2023-07-28T01:24:51;7.00;6.00;6.00
35654;PMS1003;21773;50.010;19.972;2023-07-28T01:28:04;4.00;4.00;3.60
35654;PMS1003;21773;50.010;19.972;2023-07-28T01:31:09;7.00;6.00;6.00
35654;PMS1003;21773;50.010;19.972;2023-07-28T01:34:13;5.60;5.60;5.60
35654;PMS1003;21773;50.010;19.972;2023-07-28T01:37:17;5.00;5.00;5.00
35654;PMS1003;21773;50.010;19.972;2023-07-28T01:40:20;6.25;6.25;6.25
35654;PMS1003;21773;50.010;19.972;2023-07-28T01:43:25;5.00;5.00;5.00
35654;PMS1003;21773;50.010;19.972;2023-07-28T01:46:28;3.40;3.40;3.40
35654;PMS1003;21773;50.010;19.972;2023-07-28T01:49:31;5.00;5.00;5.00
35654;PMS1003;21773;50.010;19.972;2023-07-28T01:52:34;4.00;4.00;3.75
35654;PMS1003;21773;50.010;19.972;2023-07-28T01:55:37;3.00;3.00;2.80
35654;PMS1003;21773;50.010;19.972;2023-07-28T01:58:42;4.40;4.40;4.40
35654;PMS1003;21773;50.010;19.972;2023-07-28T02:01:46;8.00;7.00;6.50
35654;PMS1003;21773;50.010;19.972;2023-07-28T02:04:49;5.00;5.00;5.00
35654;PMS1003;21773;50.010;19.972;2023-07-28T02:07:52;4.80;4.80;4.00
35654;PMS1003;21773;50.010;19.972;2023-07-28T02:10:55;6.00;5.75;5.75
35654;PMS1003;21773;50.010;19.972;2023-07-28T02:14:00;5.00;4.00;4.00
35654;PMS1003;21773;50.010;19.972;2023-07-28T02:17:03;5.00;5.00;4.50
35654;PMS1003;21773;50.010;19.972;2023-07-28T02:20:07;5.00;5.00;4.00
35654;PMS1003;21773;50.010;19.972;2023-07-28T02:23:12;5.00;4.40;4.00
35654;PMS1003;21773;50.010;19.972;2023-07-28T02:26:15;6.00;6.00;5.00
35654;PMS1003;21773;50.010;19.972;2023-07-28T02:29:21;7.00;6.20;6.00
35654;PMS1003;21773;50.010;19.972;2023-07-28T02:32:24;6.00;6.00;6.00
35654;PMS1003;21773;50.010;19.972;2023-07-28T02:35:28;5.80;5.80;5.80
35654;PMS1003;21773;50.010;19.972;2023-07-28T02:38:33;3.80;3.80;3.80
35654;PMS1003;21773;50.010;19.972;2023-07-28T02:41:37;5.00;5.00;4.00
35654;PMS1003;21773;50.010;19.972;2023-07-28T02:44:42;6.00;6.00;6.00
35654;PMS1003;21773;50.010;19.972;2023-07-28T02:47:45;3.60;3.60;3.20
35654;PMS1003;21773;50.010;19.972;2023-07-28T02:50:48;4.00;4.00;4.00
35654;PMS1003;21773;50.010;19.972;2023-07-28T02:53:53;5.20;5.00;4.20
35654;PMS1003;21773;50.010;19.972;2023-07-28T02:56:56;5.80;5.00;4.20
35654;PMS1003;21773;50.010;19.972;2023-07-28T03:00:01;5.40;5.00;4.00
35654;PMS1003;21773;50.010;19.972;2023-07-28T03:03:08;6.40;6.40;5.40
35654;PMS1003;21773;50.010;19.972;2023-07-28T03:06:14;5.00;5.00;5.00
35654;PMS1003;21773;50.010;19.972;2023-07-28T03:09:17;7.00;6.00;6.00
35654;PMS1003;21773;50.010;19.972;2023-07-28T03:12:36;3.00;3.00;2.80
35654;PMS1003;21773;50.010;19.972;2023-07-28T03:15:40;5.40;5.40;5.40
35654;PMS1003;21773;50.010;19.972;2023-07-28T03:18:44;6.00;6.00;5.40
35654;PMS1003;21773;50.010;19.972;2023-07-28T03:21:47;4.80;4.80;4.80
35654;PMS1003;21773;50.010;19.972;2023-07-28T03:24:50;6.80;6.80;6.20
35654;PMS1003;21773;50.010;19.972;2023-07-28T03:27:54;5.25;5.25;5.25
35654;PMS1003;21773;50.010;19.972;2023-07-28T03:30:58;7.50;7.50;7.00
35654;PMS1003;21773;50.010;19.972;2023-07-28T03:34:02;4.80;4.40;4.00
35654;PMS1003;21773;50.010;19.972;2023-07-28T03:37:06;3.00;3.00;3.00
35654;PMS1003;21773;50.010;19.972;2023-07-28T03:40:11;6.00;5.40;5.00
35654;PMS1003;21773;50.010;19.972;2023-07-28T03:43:22;4.75;4.50;4.00
35654;PMS1003;21773;50.010;19.972;2023-07-28T03:46:27;5.80;5.00;4.40
35654;PMS1003;21773;50.010;19.972;2023-07-28T03:49:32;5.00;5.00;4.80
35654;PMS1003;21773;50.010;19.972;2023-07-28T03:52:35;5.00;5.00;4.00
35654;PMS1003;21773;50.010;19.972;2023-07-28T03:55:39;7.00;7.00;6.50
35654;PMS1003;21773;50.010;19.972;2023-07-28T03:58:42;5.00;5.00;4.00
35654;PMS1003;21773;50.010;19.972;2023-07-28T04:01:47;4.00;4.00;4.00
35654;PMS1003;21773;50.010;19.972;2023-07-28T04:04:52;7.00;6.40;6.00
35654;PMS1003;21773;50.010;19.972;2023-07-28T04:07:57;3.80;3.80;3.00
35654;PMS1003;21773;50.010;19.972;2023-07-28T04:11:00;4.20;4.20;4.00
35654;PMS1003;21773;50.010;19.972;2023-07-28T04:14:03;5.60;5.00;5.00
35654;PMS1003;21773;50.010;19.972;2023-07-28T04:17:09;4.00;4.00;3.75
35654;PMS1003;21773;50.010;19.972;2023-07-28T04:20:13;5.00;5.00;4.40
35654;PMS1003;21773;50.010;19.972;2023-07-28T04:23:16;3.80;3.80;3.00
35654;PMS1003;21773;50.010;19.972;2023-07-28T04:26:20;6.00;5.00;4.00
35654;PMS1003;21773;50.010;19.972;2023-07-28T04:29:29;5.00;5.00;4.40
35654;PMS1003;21773;50.010;19.972;2023-07-28T04:32:34;5.25;5.25;5.25
35654;PMS1003;21773;50.010;19.972;2023-07-28T04:35:45;4.25;4.25;4.00
35654;PMS1003;21773;50.010;19.972;2023-07-28T04:38:52;7.00;6.00;5.40
35654;PMS1003;21773;50.010;19.972;2023-07-28T04:41:58;5.00;5.00;5.00
35654;PMS1003;21773;50.010;19.972;2023-07-28T04:45:02;4.60;4.60;4.20
35654;PMS1003;21773;50.010;19.972;2023-07-28T04:48:08;4.00;3.00;3.00
35654;PMS1003;21773;50.010;19.972;2023-07-28T04:51:11;5.00;5.00;4.00
35654;PMS1003;21773;50.010;19.972;2023-07-28T04:54:33;3.80;3.40;3.00
35654;PMS1003;21773;50.010;19.972;2023-07-28T04:57:36;4.00;4.00;3.60
35654;PMS1003;21773;50.010;19.972;2023-07-28T05:00:40;4.00;4.00;4.00
35654;PMS1003;21773;50.010;19.972;2023-07-28T05:03:45;4.20;4.20;4.00
35654;PMS1003;21773;50.010;19.972;2023-07-28T05:06:56;5.00;4.00;4.00
35654;PMS1003;21773;50.010;19.972;2023-07-28T05:09:59;3.00;3.00;3.00
35654;PMS1003;21773;50.010;19.972;2023-07-28T05:13:03;3.25;3.00;3.00
35654;PMS1003;21773;50.010;19.972;2023-07-28T05:16:06;6.00;6.00;5.00
35654;PMS1003;21773;50.010;19.972;2023-07-28T05:19:46;4.75;4.00;4.00
35654;PMS1003;21773;50.010;19.972;2023-07-28T05:23:10;4.00;3.00;3.00
35654;PMS1003;21773;50.010;19.972;2023-07-28T05:26:13;3.00;2.40;2.00
35654;PMS1003;21773;50.010;19.972;2023-07-28T05:29:16;3.00;2.00;2.00
35654;PMS1003;21773;50.010;19.972;2023-07-28T05:32:21;3.00;3.00;2.00
35654;PMS1003;21773;50.010;19.972;2023-07-28T05:35:41;3.20;3.20;3.00
35654;PMS1003;21773;50.010;19.972;2023-07-28T05:38:45;5.00;5.00;5.00
35654;PMS1003;21773;50.010;19.972;2023-07-28T05:41:48;7.40;7.00;7.00
35654;PMS1003;21773;50.010;19.972;2023-07-28T05:44:51;6.50;6.50;6.00
35654;PMS1003;21773;50.010;19.972;2023-07-28T05:47:57;7.00;7.00;6.75
35654;PMS1003;21773;50.010;19.972;2023-07-28T05:51:02;5.00;5.00;4.00
35654;PMS1003;21773;50.010;19.972;2023-07-28T05:54:06;6.00;6.00;5.00
35654;PMS1003;21773;50.010;19.972;2023-07-28T05:57:09;6.75;6.75;6.00
35654;PMS1003;21773;50.010;19.972;2023-07-28T06:00:13;7.40;7.40;6.40
35654;PMS1003;21773;50.010;19.972;2023-07-28T06:03:16;3.80;3.80;3.00
35654;PMS1003;21773;50.010;19.972;2023-07-28T06:06:38;6.80;6.00;5.80
35654;PMS1003;21773;50.010;19.972;2023-07-28T06:09:41;4.00;4.00;3.50
35654;PMS1003;21773;50.010;19.972;2023-07-28T06:12:44;6.00;5.00;4.00
35654;PMS1003;21773;50.010;19.972;2023-07-28T06:15:47;3.25;2.25;2.25
35654;PMS1003;21773;50.010;19.972;2023-07-28T06:18:51;4.20;4.20;4.20
35654;PMS1003;21773;50.010;19.972;2023-07-28T06:21:58;5.00;5.00;5.00
35654;PMS1003;21773;50.010;19.972;2023-07-28T06:25:03;3.00;3.00;2.60
35654;PMS1003;21773;50.010;19.972;2023-07-28T06:28:07;3.25;3.00;3.00
35654;PMS1003;21773;50.010;19.972;2023-07-28T06:31:11;5.00;4.00;4.00
35654;PMS1003;21773;50.010;19.972;2023-07-28T06:34:14;4.00;4.00;4.00
35654;PMS1003;21773;50.010;19.972;2023-07-28T06:37:19;2.00;2.00;2.00
35654;PMS1003;21773;50.010;19.972;2023-07-28T06:40:22;3.00;3.00;3.00
35654;PMS1003;21773;50.010;19.972;2023-07-28T06:43:26;2.00;2.00;1.60
35654;PMS1003;21773;50.010;19.972;2023-07-28T06:46:29;2.00;2.00;1.00
35654;PMS1003;21773;50.010;19.972;2023-07-28T06:49:32;4.00;4.00;3.00
35654;PMS1003;21773;50.010;19.972;2023-07-28T06:52:37;3.50;3.50;3.00
35654;PMS1003;21773;50.010;19.972;2023-07-28T06:55:42;4.00;4.00;4.00
35654;PMS1003;21773;50.010;19.972;2023-07-28T06:58:46;4.00;4.00;4.00
35654;PMS1003;21773;50.010;19.972;2023-07-28T07:02:01;4.00;4.00;4.00
35654;PMS1003;21773;50.010;19.972;2023-07-28T07:05:05;3.00;3.00;2.50
35654;PMS1003;21773;50.010;19.972;2023-07-28T07:08:10;5.00;4.00;3.00
35654;PMS1003;21773;50.010;19.972;2023-07-28T07:11:13;3.00;3.00;3.00
35654;PMS1003;21773;50.010;19.972;2023-07-28T07:14:17;3.00;3.00;2.00
35654;PMS1003;21773;50.010;19.972;2023-07-28T07:17:20;3.00;3.00;2.00
35654;PMS1003;21773;50.010;19.972;2023-07-28T07:20:23;5.00;4.00;4.00
35654;PMS1003;21773;50.010;19.972;2023-07-28T07:23:28;5.60;5.00;4.60
35654;PMS1003;21773;50.010;19.972;2023-07-28T07:26:31;3.00;3.00;2.00
35654;PMS1003;21773;50.010;19.972;2023-07-28T07:29:34;4.50;4.00;3.50
35654;PMS1003;21773;50.010;19.972;2023-07-28T07:32:38;5.60;4.60;4.60
35654;PMS1003;21773;50.010;19.972;2023-07-28T07:35:41;3.00;3.00;2.00
35654;PMS1003;21773;50.010;19.972;2023-07-28T07:38:46;2.20;2.20;2.00
35654;PMS1003;21773;50.010;19.972;2023-07-28T07:41:50;2.80;2.80;2.20
35654;PMS1003;21773;50.010;19.972;2023-07-28T07:44:55;3.25;3.25;3.00
35654;PMS1003;21773;50.010;19.972;2023-07-28T07:47:58;5.00;5.00;4.75
35654;PMS1003;21773;50.010;19.972;2023-07-28T07:51:02;4.50;4.00;4.00
35654;PMS1003;21773;50.010;19.972;2023-07-28T07:54:06;4.00;4.00;4.00
35654;PMS1003;21773;50.010;19.972;2023-07-28T07:57:10;7.80;6.80;6.80
35654;PMS1003;21773;50.010;19.972;2023-07-28T08:00:13;5.20;4.00;4.00
35654;PMS1003;21773;50.010;19.972;2023-07-28T08:03:17;5.00;5.00;4.00
35654;PMS1003;21773;50.010;19.972;2023-07-28T08:06:20;5.00;4.00;4.00
35654;PMS1003;21773;50.010;19.972;2023-07-28T08:09:25;2.80;2.80;2.00
35654;PMS1003;21773;50.010;19.972;2023-07-28T08:12:28;3.00;3.00;3.00
35654;PMS1003;21773;50.010;19.972;2023-07-28T08:15:32;3.80;3.80;3.00
35654;PMS1003;21773;50.010;19.972;2023-07-28T08:18:35;2.67;2.00;2.00
35654;PMS1003;21773;50.010;19.972;2023-07-28T08:21:39;4.00;3.40;3.00
35654;PMS1003;21773;50.010;19.972;2023-07-28T08:24:43;3.60;2.60;2.60
35654;PMS1003;21773;50.010;19.972;2023-07-28T08:27:46;3.00;3.00;2.60
35654;PMS1003;21773;50.010;19.972;2023-07-28T08:30:53;3.00;3.00;3.00
35654;PMS1003;21773;50.010;19.972;2023-07-28T08:33:58;3.00;3.00;3.00
35654;PMS1003;21773;50.010;19.972;2023-07-28T08:37:01;3.00;2.25;2.00
35654;PMS1003;21773;50.010;19.972;2023-07-28T08:40:07;3.20;3.00;2.20
35654;PMS1003;21773;50.010;19.972;2023-07-28T08:43:10;3.00;3.00;3.00
35654;PMS1003;21773;50.010;19.972;2023-07-28T08:46:14;4.50;4.00;4.00
35654;PMS1003;21773;50.010;19.972;2023-07-28T08:49:17;5.75;4.50;4.50
35654;PMS1003;21773;50.010;19.972;2023-07-28T08:52:20;4.00;4.00;3.00
35654;PMS1003;21773;50.010;19.972;2023-07-28T08:55:25;4.00;4.00;3.00
35654;PMS1003;21773;50.010;19.972;2023-07-28T08:58:29;6.40;6.00;6.00
35654;PMS1003;21773;50.010;19.972;2023-07-28T09:01:32;7.00;7.00;7.00
35654;PMS1003;21773;50.010;19.972;2023-07-28T09:04:41;7.40;7.00;7.00
35654;PMS1003;21773;50.010;19.972;2023-07-28T09:07:44;6.00;5.60;5.00
35654;PMS1003;21773;50.010;19.972;2023-07-28T09:10:49;6.40;6.40;5.40
35654;PMS1003;21773;50.010;19.972;2023-07-28T09:13:53;4.00;4.00;3.40
35654;PMS1003;21773;50.010;19.972;2023-07-28T09:17:05;6.00;6.00;5.00
35654;PMS1003;21773;50.010;19.972;2023-07-28T09:20:12;4.50;4.50;4.00
35654;PMS1003;21773;50.010;19.972;2023-07-28T09:23:16;6.00;5.40;5.00
35654;PMS1003;21773;50.010;19.972;2023-07-28T09:26:21;5.00;5.00;5.00
35654;PMS1003;21773;50.010;19.972;2023-07-28T09:29:25;4.80;4.80;4.20
35654;PMS1003;21773;50.010;19.972;2023-07-28T09:32:30;5.00;5.00;4.60
35654;PMS1003;21773;50.010;19.972;2023-07-28T09:35:42;7.00;5.40;5.00
35654;PMS1003;21773;50.010;19.972;2023-07-28T09:38:50;5.00;5.00;5.00
35654;PMS1003;21773;50.010;19.972;2023-07-28T09:41:57;6.00;5.00;5.00
35654;PMS1003;21773;50.010;19.972;2023-07-28T09:45:04;5.00;5.00;4.60
35654;PMS1003;21773;50.010;19.972;2023-07-28T09:48:14;4.00;4.00;3.00
35654;PMS1003;21773;50.010;19.972;2023-07-28T09:51:19;5.00;5.00;4.00
35654;PMS1003;21773;50.010;19.972;2023-07-28T09:54:25;4.00;4.00;4.00
35654;PMS1003;21773;50.010;19.972;2023-07-28T09:57:33;5.00;5.00;5.00
35654;PMS1003;21773;50.010;19.972;2023-07-28T10:00:41;6.00;4.75;4.00
35654;PMS1003;21773;50.010;19.972;2023-07-28T10:03:45;4.00;4.00;4.00
35654;PMS1003;21773;50.010;19.972;2023-07-28T10:06:50;6.00;6.00;5.00
35654;PMS1003;21773;50.010;19.972;2023-07-28T10:09:58;8.00;7.00;6.00
35654;PMS1003;21773;50.010;19.972;2023-07-28T10:13:03;8.00;7.40;7.00
35654;PMS1003;21773;50.010;19.972;2023-07-28T10:16:06;8.00;7.40;7.00
35654;PMS1003;21773;50.010;19.972;2023-07-28T10:19:10;6.25;6.25;6.00
35654;PMS1003;21773;50.010;19.972;2023-07-28T10:22:14;8.25;8.00;7.25
35654;PMS1003;21773;50.010;19.972;2023-07-28T10:25:21;9.60;8.00;7.60
35654;PMS1003;21773;50.010;19.972;2023-07-28T10:28:27;6.40;6.40;6.00
35654;PMS1003;21773;50.010;19.972;2023-07-28T10:31:33;9.00;8.00;8.00
35654;PMS1003;21773;50.010;19.972;2023-07-28T10:34:37;6.00;5.00;5.00
35654;PMS1003;21773;50.010;19.972;2023-07-28T10:37:44;7.40;7.40;7.00
35654;PMS1003;21773;50.010;19.972;2023-07-28T10:40:49;5.00;5.00;5.00
35654;PMS1003;21773;50.010;19.972;2023-07-28T10:43:54;4.00;4.00;3.20
35654;PMS1003;21773;50.010;19.972;2023-07-28T10:46:58;6.00;6.00;5.60
35654;PMS1003;21773;50.010;19.972;2023-07-28T10:50:02;5.00;5.00;4.75
35654;PMS1003;21773;50.010;19.972;2023-07-28T10:53:06;6.40;6.40;6.40
35654;PMS1003;21773;50.010;19.972;2023-07-28T10:56:09;4.00;3.60;3.00
35654;PMS1003;21773;50.010;19.972;2023-07-28T10:59:14;4.20;4.20;4.20
35654;PMS1003;21773;50.010;19.972;2023-07-28T11:02:18;5.00;5.00;4.80
35654;PMS1003;21773;50.010;19.972;2023-07-28T11:05:22;6.60;6.00;6.00
35654;PMS1003;21773;50.010;19.972;2023-07-28T11:08:27;6.50;6.50;6.00
35654;PMS1003;21773;50.010;19.972;2023-07-28T11:11:30;3.40;3.00;2.40
35654;PMS1003;21773;50.010;19.972;2023-07-28T11:14:35;3.00;3.00;3.00
35654;PMS1003;21773;50.010;19.972;2023-07-28T11:17:39;2.00;2.00;2.00
35654;PMS1003;21773;50.010;19.972;2023-07-28T11:20:47;3.25;3.25;3.25
35654;PMS1003;21773;50.010;19.972;2023-07-28T11:23:50;3.00;3.00;3.00
35654;PMS1003;21773;50.010;19.972;2023-07-28T11:26:56;3.00;3.00;3.00
35654;PMS1003;21773;50.010;19.972;2023-07-28T11:30:02;2.00;2.00;1.25
35654;PMS1003;21773;50.010;19.972;2023-07-28T11:33:08;2.00;2.00;2.00
35654;PMS1003;21773;50.010;19.972;2023-07-28T11:36:13;2.40;2.00;2.00
35654;PMS1003;21773;50.010;19.972;2023-07-28T11:39:25;4.00;4.00;4.00
35654;PMS1003;21773;50.010;19.972;2023-07-28T11:42:28;2.00;2.00;2.00
35654;PMS1003;21773;50.010;19.972;2023-07-28T11:45:34;3.00;3.00;2.80
35654;PMS1003;21773;50.010;19.972;2023-07-28T11:48:40;2.00;2.00;2.00
35654;PMS1003;21773;50.010;19.972;2023-07-28T11:51:44;1.00;1.00;1.00
35654;PMS1003;21773;50.010;19.972;2023-07-28T11:54:51;2.00;2.00;2.00
35654;PMS1003;21773;50.010;19.972;2023-07-28T11:57:54;3.80;3.80;3.80
35654;PMS1003;21773;50.010;19.972;2023-07-28T12:00:59;4.00;4.00;4.00
35654;PMS1003;21773;50.010;19.972;2023-07-28T12:04:21;3.00;3.00;3.00
35654;PMS1003;21773;50.010;19.972;2023-07-28T12:07:29;2.75;2.75;2.75
35654;PMS1003;21773;50.010;19.972;2023-07-28T12:10:33;3.00;3.00;3.00
35654;PMS1003;21773;50.010;19.972;2023-07-28T12:13:49;3.60;3.00;3.00
35654;PMS1003;21773;50.010;19.972;2023-07-28T12:16:57;2.00;2.00;2.00
35654;PMS1003;21773;50.010;19.972;2023-07-28T12:20:03;3.00;3.00;3.00
35654;PMS1003;21773;50.010;19.972;2023-07-28T12:23:13;4.00;4.00;4.00
35654;PMS1003;21773;50.010;19.972;2023-07-28T12:26:20;3.80;3.80;3.80
35654;PMS1003;21773;50.010;19.972;2023-07-28T12:29:23;2.00;2.00;2.00
35654;PMS1003;21773;50.010;19.972;2023-07-28T12:32:30;2.00;2.00;2.00
35654;PMS1003;21773;50.010;19.972;2023-07-28T12:35:38;3.00;2.00;2.00
35654;PMS1003;21773;50.010;19.972;2023-07-28T12:38:45;2.00;2.00;2.00
35654;PMS1003;21773;50.010;19.972;2023-07-28T12:41:48;3.00;3.00;3.00
35654;PMS1003;21773;50.010;19.972;2023-07-28T12:45:11;3.20;3.20;3.20
35654;PMS1003;21773;50.010;19.972;2023-07-28T12:48:19;3.00;3.00;2.40
35654;PMS1003;21773;50.010;19.972;2023-07-28T12:51:23;3.00;3.00;3.00
35654;PMS1003;21773;50.010;19.972;2023-07-28T12:54:29;3.00;3.00;2.25
35654;PMS1003;21773;50.010;19.972;2023-07-28T12:57:44;2.00;2.00;2.00
35654;PMS1003;21773;50.010;19.972;2023-07-28T13:00:50;5.00;4.00;4.00
35654;PMS1003;21773;50.010;19.972;2023-07-28T13:03:57;1.00;1.00;1.00
35654;PMS1003;21773;50.010;19.972;2023-07-28T13:07:01;2.00;2.00;2.00
35654;PMS1003;21773;50.010;19.972;2023-07-28T13:10:08;3.00;2.20;2.20
35654;PMS1003;21773;50.010;19.972;2023-07-28T13:13:32;4.40;4.40;4.00
35654;PMS1003;21773;50.010;19.972;2023-07-28T13:16:36;3.00;3.00;3.00
35654;PMS1003;21773;50.010;19.972;2023-07-28T13:19:41;3.60;3.20;3.20
35654;PMS1003;21773;50.010;19.972;2023-07-28T13:22:45;2.20;1.60;1.60
35654;PMS1003;21773;50.010;19.972;2023-07-28T13:25:48;1.00;1.00;1.00
35654;PMS1003;21773;50.010;19.972;2023-07-28T13:28:51;1.40;1.40;1.00
35654;PMS1003;21773;50.010;19.972;2023-07-28T13:31:56;3.00;2.00;2.00
35654;PMS1003;21773;50.010;19.972;2023-07-28T13:35:02;2.60;2.60;2.40
35654;PMS1003;21773;50.010;19.972;2023-07-28T13:38:05;2.60;2.00;2.00
35654;PMS1003;21773;50.010;19.972;2023-07-28T13:41:08;3.00;3.00;3.00
35654;PMS1003;21773;50.010;19.972;2023-07-28T13:44:12;3.00;3.00;2.60
35654;PMS1003;21773;50.010;19.972;2023-07-28T13:47:16;1.00;1.00;1.00
35654;PMS1003;21773;50.010;19.972;2023-07-28T13:50:20;3.00;3.00;2.25
35654;PMS1003;21773;50.010;19.972;2023-07-28T13:53:38;2.00;2.00;2.00
35654;PMS1003;21773;50.010;19.972;2023-07-28T13:56:41;1.00;0.20;0.20
35654;PMS1003;21773;50.010;19.972;2023-07-28T13:59:48;1.60;1.60;1.60
35654;PMS1003;21773;50.010;19.972;2023-07-28T14:02:51;2.00;1.40;1.40
35654;PMS1003;21773;50.010;19.972;2023-07-28T14:05:56;1.00;1.00;1.00
35654;PMS1003;21773;50.010;19.972;2023-07-28T14:09:00;2.00;2.00;2.00
35654;PMS1003;21773;50.010;19.972;2023-07-28T14:12:03;2.00;1.20;1.00
35654;PMS1003;21773;50.010;19.972;2023-07-28T14:15:07;3.00;2.00;1.00
35654;PMS1003;21773;50.010;19.972;2023-07-28T14:18:11;1.00;1.00;1.00
35654;PMS1003;21773;50.010;19.972;2023-07-28T14:21:16;1.00;1.00;1.00
35654;PMS1003;21773;50.010;19.972;2023-07-28T14:24:19;1.00;1.00;0.00
35654;PMS1003;21773;50.010;19.972;2023-07-28T14:27:22;0.00;0.00;0.00
35654;PMS1003;21773;50.010;19.972;2023-07-28T14:30:25;0.60;0.60;0.40
35654;PMS1003;21773;50.010;19.972;2023-07-28T14:33:29;2.00;2.00;1.00
35654;PMS1003;21773;50.010;19.972;2023-07-28T14:36:33;1.00;1.00;1.00
35654;PMS1003;21773;50.010;19.972;2023-07-28T14:39:37;1.00;1.00;1.00
35654;PMS1003;21773;50.010;19.972;2023-07-28T14:42:40;1.00;1.00;1.00
35654;PMS1003;21773;50.010;19.972;2023-07-28T14:45:44;2.00;2.00;2.00
35654;PMS1003;21773;50.010;19.972;2023-07-28T14:48:47;1.00;1.00;1.00
35654;PMS1003;21773;50.010;19.972;2023-07-28T14:51:53;0.00;0.00;0.00
35654;PMS1003;21773;50.010;19.972;2023-07-28T14:54:56;1.00;1.00;1.00
35654;PMS1003;21773;50.010;19.972;2023-07-28T14:57:59;1.60;1.00;1.00
35654;PMS1003;21773;50.010;19.972;2023-07-28T15:01:02;1.60;1.40;1.40
35654;PMS1003;21773;50.010;19.972;2023-07-28T15:04:08;0.20;0.20;0.00
35654;PMS1003;21773;50.010;19.972;2023-07-28T15:07:14;1.60;1.60;1.00
35654;PMS1003;21773;50.010;19.972;2023-07-28T15:10:19;2.00;1.00;1.00
35654;PMS1003;21773;50.010;19.972;2023-07-28T15:13:22;3.00;3.00;3.00
35654;PMS1003;21773;50.010;19.972;2023-07-28T15:16:26;2.00;2.00;2.00
35654;PMS1003;21773;50.010;19.972;2023-07-28T15:19:29;2.00;2.00;1.60
35654;PMS1003;21773;50.010;19.972;2023-07-28T15:22:34;2.00;2.00;2.00
35654;PMS1003;21773;50.010;19.972;2023-07-28T15:25:37;2.00;1.00;1.00
35654;PMS1003;21773;50.010;19.972;2023-07-28T15:28:44;4.25;4.25;4.00
35654;PMS1003;21773;50.010;19.972;2023-07-28T15:31:47;2.00;2.00;2.00
35654;PMS1003;21773;50.010;19.972;2023-07-28T15:34:52;1.40;1.40;1.00
35654;PMS1003;21773;50.010;19.972;2023-07-28T15:37:56;2.00;2.00;2.00
35654;PMS1003;21773;50.010;19.972;2023-07-28T15:41:00;3.80;3.00;3.00
35654;PMS1003;21773;50.010;19.972;2023-07-28T15:44:03;4.00;4.00;3.00
35654;PMS1003;21773;50.010;19.972;2023-07-28T15:47:07;2.25;2.25;2.25
35654;PMS1003;21773;50.010;19.972;2023-07-28T15:50:10;2.75;2.75;2.00
35654;PMS1003;21773;50.010;19.972;2023-07-28T15:53:15;2.00;2.00;2.00
35654;PMS1003;21773;50.010;19.972;2023-07-28T15:56:18;2.00;2.00;2.00
35654;PMS1003;21773;50.010;19.972;2023-07-28T15:59:21;2.80;2.80;2.00
35654;PMS1003;21773;50.010;19.972;2023-07-28T16:02:24;1.25;1.25;1.25
35654;PMS1003;21773;50.010;19.972;2023-07-28T16:05:28;3.00;3.00;2.00
35654;PMS1003;21773;50.010;19.972;2023-07-28T16:08:33;4.00;4.00;4.00
35654;PMS1003;21773;50.010;19.972;2023-07-28T16:11:36;5.00;5.00;5.00
35654;PMS1003;21773;50.010;19.972;2023-07-28T16:14:39;5.00;5.00;5.00
35654;PMS1003;21773;50.010;19.972;2023-07-28T16:17:43;4.00;3.00;2.80
35654;PMS1003;21773;50.010;19.972;2023-07-28T16:20:46;3.00;3.00;2.80
35654;PMS1003;21773;50.010;19.972;2023-07-28T16:23:51;5.00;5.00;4.00
35654;PMS1003;21773;50.010;19.972;2023-07-28T16:26:54;4.00;3.80;3.00
35654;PMS1003;21773;50.010;19.972;2023-07-28T16:29:57;4.00;3.20;3.00
35654;PMS1003;21773;50.010;19.972;2023-07-28T16:33:00;3.00;3.00;3.00
35654;PMS1003;21773;50.010;19.972;2023-07-28T16:36:04;5.00;5.00;5.00
35654;PMS1003;21773;50.010;19.972;2023-07-28T16:39:09;2.75;2.75;2.00
35654;PMS1003;21773;50.010;19.972;2023-07-28T16:42:12;3.00;3.00;3.00
35654;PMS1003;21773;50.010;19.972;2023-07-28T16:45:16;2.60;2.00;2.00
35654;PMS1003;21773;50.010;19.972;2023-07-28T16:48:19;3.00;3.00;3.00
35654;PMS1003;21773;50.010;19.972;2023-07-28T16:51:23;5.00;4.00;4.00
35654;PMS1003;21773;50.010;19.972;2023-07-28T16:54:27;4.60;4.60;4.00
35654;PMS1003;21773;50.010;19.972;2023-07-28T16:57:31;5.00;5.00;4.40
35654;PMS1003;21773;50.010;19.972;2023-07-28T17:00:34;5.00;4.00;3.67
35654;PMS1003;21773;50.010;19.972;2023-07-28T17:03:37;7.40;7.40;7.00
35654;PMS1003;21773;50.010;19.972;2023-07-28T17:06:40;6.25;6.00;5.25
35654;PMS1003;21773;50.010;19.972;2023-07-28T17:09:48;5.60;5.60;5.00
35654;PMS1003;21773;50.010;19.972;2023-07-28T17:12:52;5.80;4.80;3.80
35654;PMS1003;21773;50.010;19.972;2023-07-28T17:15:55;6.50;6.50;6.00
35654;PMS1003;21773;50.010;19.972;2023-07-28T17:18:59;8.00;8.00;7.00
35654;PMS1003;21773;50.010;19.972;2023-07-28T17:22:02;8.60;8.00;7.20
35654;PMS1003;21773;50.010;19.972;2023-07-28T17:25:08;8.00;7.60;6.40
35654;PMS1003;21773;50.010;19.972;2023-07-28T17:28:11;9.00;8.75;8.00
35654;PMS1003;21773;50.010;19.972;2023-07-28T17:31:15;5.50;5.50;5.00
35654;PMS1003;21773;50.010;19.972;2023-07-28T17:34:18;7.40;6.00;5.00
35654;PMS1003;21773;50.010;19.972;2023-07-28T17:37:21;8.00;8.00;7.00
35654;PMS1003;21773;50.010;19.972;2023-07-28T17:40:25;6.25;6.25;5.25
35654;PMS1003;21773;50.010;19.972;2023-07-28T17:43:29;7.00;5.00;5.00
35654;PMS1003;21773;50.010;19.972;2023-07-28T17:46:32;8.00;7.20;7.00